sensor_id;sensor_type;location;lat;lon;timestamp;noise_LAeq;noise_LA_min;noise_LA_max;noise_LA01;noise_LA95
69608;Laerm;57251;52.248;4.812;2022-08-03T00:00:08;32.55;31.40;36.00;;
69608;Laerm;57251;52.248;4.812;2022-08-03T00:00:18;32.56;31.18;37.07;;
69608;Laerm;57251;52.248;4.812;2022-08-03T00:00:29;32.93;31.50;36.94;;
69608;Laerm;57251;52.248;4.812;2022-08-03T00:00:39;32.34;30.67;33.34;;
69608;Laerm;57251;52.248;4.812;2022-08-03T00:00:49;32.31;30.65;35.51;;
69608;Laerm;57251;52.248;4.812;2022-08-03T00:00:59;32.31;31.38;33.54;;
69608;Laerm;57251;52.248;4.812;2022-08-03T00:01:10;32.49;31.29;34.14;;
69608;Laerm;57251;52.248;4.812;2022-08-03T00:01:20;33.08;31.55;41.20;;
69608;Laerm;57251;52.248;4.812;2022-08-03T00:01:30;32.60;31.27;37.10;;
69608;Laerm;57251;52.248;4.812;2022-08-03T00:01:40;32.53;31.53;35.89;;
69608;Laerm;57251;52.248;4.812;2022-08-03T00:01:51;32.49;31.32;33.59;;
69608;Laerm;57251;52.248;4.812;2022-08-03T00:02:01;32.30;31.15;33.33;;
69608;Laerm;57251;52.248;4.812;2022-08-03T00:02:13;33.11;31.46;38.18;;
69608;Laerm;57251;52.248;4.812;2022-08-03T00:02:23;32.83;31.35;33.96;;
69608;Laerm;57251;52.248;4.812;2022-08-03T00:02:33;33.22;31.97;35.26;;
69608;Laerm;57251;52.248;4.812;2022-08-03T00:02:43;35.32;32.96;37.91;;
69608;Laerm;57251;52.248;4.812;2022-08-03T00:02:53;37.59;34.41;44.70;;
69608;Laerm;57251;52.248;4.812;2022-08-03T00:03:03;35.26;32.40;40.46;;
69608;Laerm;57251;52.248;4.812;2022-08-03T00:03:14;33.73;31.69;37.15;;
69608;Laerm;57251;52.248;4.812;2022-08-03T00:03:24;33.42;31.72;35.97;;
69608;Laerm;57251;52.248;4.812;2022-08-03T00:03:34;33.84;32.23;36.01;;
69608;Laerm;57251;52.248;4.812;2022-08-03T00:03:44;34.51;32.41;37.60;;
69608;Laerm;57251;52.248;4.812;2022-08-03T00:03:54;34.85;32.80;40.67;;
69608;Laerm;57251;52.248;4.812;2022-08-03T00:04:05;34.88;32.91;36.99;;
69608;Laerm;57251;52.248;4.812;2022-08-03T00:04:16;35.07;32.61;39.00;;
69608;Laerm;57251;52.248;4.812;2022-08-03T00:04:26;34.61;32.37;36.85;;
69608;Laerm;57251;52.248;4.812;2022-08-03T00:04:36;34.30;32.55;36.62;;
69608;Laerm;57251;52.248;4.812;2022-08-03T00:04:46;33.89;32.07;36.09;;
69608;Laerm;57251;52.248;4.812;2022-08-03T00:04:57;33.54;31.95;35.44;;
69608;Laerm;57251;52.248;4.812;2022-08-03T00:05:07;33.64;31.61;35.65;;
69608;Laerm;57251;52.248;4.812;2022-08-03T00:05:17;33.27;31.63;35.55;;
69608;Laerm;57251;52.248;4.812;2022-08-03T00:05:27;32.89;31.49;35.10;;
69608;Laerm;57251;52.248;4.812;2022-08-03T00:05:38;32.69;31.41;33.93;;
69608;Laerm;57251;52.248;4.812;2022-08-03T00:05:49;32.51;31.24;33.83;;
69608;Laerm;57251;52.248;4.812;2022-08-03T00:05:59;32.43;31.02;34.22;;
69608;Laerm;57251;52.248;4.812;2022-08-03T00:06:09;32.26;31.06;33.76;;
69608;Laerm;57251;52.248;4.812;2022-08-03T00:06:19;32.71;30.59;37.12;;
69608;Laerm;57251;52.248;4.812;2022-08-03T00:06:29;32.88;31.65;34.62;;
69608;Laerm;57251;52.248;4.812;2022-08-03T00:06:40;32.68;31.44;33.79;;
69608;Laerm;57251;52.248;4.812;2022-08-03T00:06:50;35.77;31.39;40.50;;
69608;Laerm;57251;52.248;4.812;2022-08-03T00:07:00;36.58;32.11;44.50;;
69608;Laerm;57251;52.248;4.812;2022-08-03T00:07:10;33.62;31.23;39.77;;
69608;Laerm;57251;52.248;4.812;2022-08-03T00:07:20;32.26;30.85;33.17;;
69608;Laerm;57251;52.248;4.812;2022-08-03T00:07:31;32.52;31.42;35.26;;
69608;Laerm;57251;52.248;4.812;2022-08-03T00:07:41;32.76;31.51;39.49;;
69608;Laerm;57251;52.248;4.812;2022-08-03T00:07:51;32.44;31.16;33.68;;
69608;Laerm;57251;52.248;4.812;2022-08-03T00:08:01;32.74;31.07;34.32;;
69608;Laerm;57251;52.248;4.812;2022-08-03T00:08:11;32.68;31.53;38.27;;
69608;Laerm;57251;52.248;4.812;2022-08-03T00:08:22;33.13;31.78;35.40;;
69608;Laerm;57251;52.248;4.812;2022-08-03T00:08:32;38.79;32.40;43.22;;
69608;Laerm;57251;52.248;4.812;2022-08-03T00:08:42;38.51;35.81;41.04;;
69608;Laerm;57251;52.248;4.812;2022-08-03T00:08:53;40.87;37.08;44.99;;
69608;Laerm;57251;52.248;4.812;2022-08-03T00:09:03;38.77;35.32;43.56;;
69608;Laerm;57251;52.248;4.812;2022-08-03T00:09:13;36.06;34.23;38.06;;
69608;Laerm;57251;52.248;4.812;2022-08-03T00:09:24;34.13;31.95;41.22;;
69608;Laerm;57251;52.248;4.812;2022-08-03T00:09:34;33.95;32.21;39.58;;
69608;Laerm;57251;52.248;4.812;2022-08-03T00:09:44;38.95;33.06;50.54;;
69608;Laerm;57251;52.248;4.812;2022-08-03T00:09:54;37.87;34.27;44.16;;
69608;Laerm;57251;52.248;4.812;2022-08-03T00:10:04;34.38;32.67;36.21;;
69608;Laerm;57251;52.248;4.812;2022-08-03T00:10:15;33.77;32.19;35.78;;
69608;Laerm;57251;52.248;4.812;2022-08-03T00:10:26;33.49;31.84;35.76;;
69608;Laerm;57251;52.248;4.812;2022-08-03T00:10:36;33.73;31.79;40.22;;
69608;Laerm;57251;52.248;4.812;2022-08-03T00:10:47;33.87;31.77;38.88;;
69608;Laerm;57251;52.248;4.812;2022-08-03T00:10:57;32.58;31.17;34.12;;
69608;Laerm;57251;52.248;4.812;2022-08-03T00:11:07;32.40;30.87;33.75;;
69608;Laerm;57251;52.248;4.812;2022-08-03T00:11:18;32.80;31.04;37.28;;
69608;Laerm;57251;52.248;4.812;2022-08-03T00:11:28;34.35;31.70;38.27;;
69608;Laerm;57251;52.248;4.812;2022-08-03T00:11:38;33.27;31.86;34.99;;
69608;Laerm;57251;52.248;4.812;2022-08-03T00:11:49;32.84;31.41;36.23;;
69608;Laerm;57251;52.248;4.812;2022-08-03T00:11:59;32.52;31.26;37.73;;
69608;Laerm;57251;52.248;4.812;2022-08-03T00:12:09;32.37;31.06;37.06;;
69608;Laerm;57251;52.248;4.812;2022-08-03T00:12:19;32.43;31.33;36.65;;
69608;Laerm;57251;52.248;4.812;2022-08-03T00:12:29;32.38;31.00;34.31;;
69608;Laerm;57251;52.248;4.812;2022-08-03T00:12:40;32.51;30.48;33.84;;
69608;Laerm;57251;52.248;4.812;2022-08-03T00:12:50;32.36;31.14;33.54;;
69608;Laerm;57251;52.248;4.812;2022-08-03T00:13:00;32.34;30.67;33.48;;
69608;Laerm;57251;52.248;4.812;2022-08-03T00:13:10;32.36;31.34;33.43;;
69608;Laerm;57251;52.248;4.812;2022-08-03T00:13:22;32.36;31.12;33.54;;
69608;Laerm;57251;52.248;4.812;2022-08-03T00:13:32;32.43;31.29;33.48;;
69608;Laerm;57251;52.248;4.812;2022-08-03T00:13:42;32.31;31.31;34.04;;
69608;Laerm;57251;52.248;4.812;2022-08-03T00:13:53;32.25;31.18;33.32;;
69608;Laerm;57251;52.248;4.812;2022-08-03T00:14:03;32.27;31.07;33.38;;
69608;Laerm;57251;52.248;4.812;2022-08-03T00:14:14;32.51;30.83;35.78;;
69608;Laerm;57251;52.248;4.812;2022-08-03T00:14:24;32.57;30.98;36.87;;
69608;Laerm;57251;52.248;4.812;2022-08-03T00:14:34;32.60;31.09;33.59;;
69608;Laerm;57251;52.248;4.812;2022-08-03T00:14:44;32.98;31.78;34.47;;
69608;Laerm;57251;52.248;4.812;2022-08-03T00:14:55;34.33;32.31;37.91;;
69608;Laerm;57251;52.248;4.812;2022-08-03T00:15:05;36.21;33.23;41.07;;
69608;Laerm;57251;52.248;4.812;2022-08-03T00:15:15;33.59;31.12;38.00;;
69608;Laerm;57251;52.248;4.812;2022-08-03T00:15:25;32.96;31.53;35.47;;
69608;Laerm;57251;52.248;4.812;2022-08-03T00:15:36;33.02;31.47;39.48;;
69608;Laerm;57251;52.248;4.812;2022-08-03T00:15:46;32.17;30.97;33.43;;
69608;Laerm;57251;52.248;4.812;2022-08-03T00:15:56;32.17;30.95;33.34;;
69608;Laerm;57251;52.248;4.812;2022-08-03T00:16:06;32.40;31.20;40.33;;
69608;Laerm;57251;52.248;4.812;2022-08-03T00:16:16;32.14;30.50;33.27;;
69608;Laerm;57251;52.248;4.812;2022-08-03T00:16:27;32.36;30.97;33.38;;
69608;Laerm;57251;52.248;4.812;2022-08-03T00:16:37;32.64;31.19;36.29;;
69608;Laerm;57251;52.248;4.812;2022-08-03T00:16:47;33.03;31.58;38.16;;
69608;Laerm;57251;52.248;4.812;2022-08-03T00:16:57;33.35;31.35;38.29;;
69608;Laerm;57251;52.248;4.812;2022-08-03T00:17:07;33.52;31.98;38.15;;
69608;Laerm;57251;52.248;4.812;2022-08-03T00:17:18;33.84;32.20;36.63;;
69608;Laerm;57251;52.248;4.812;2022-08-03T00:17:28;34.17;32.20;36.79;;
69608;Laerm;57251;52.248;4.812;2022-08-03T00:17:38;34.38;32.40;38.79;;
69608;Laerm;57251;52.248;4.812;2022-08-03T00:17:48;33.52;31.62;35.27;;
69608;Laerm;57251;52.248;4.812;2022-08-03T00:17:58;33.99;31.81;43.91;;
69608;Laerm;57251;52.248;4.812;2022-08-03T00:18:08;33.91;31.82;36.37;;
69608;Laerm;57251;52.248;4.812;2022-08-03T00:18:19;33.70;32.07;36.06;;
69608;Laerm;57251;52.248;4.812;2022-08-03T00:18:29;33.29;31.17;35.31;;
69608;Laerm;57251;52.248;4.812;2022-08-03T00:18:39;34.35;32.17;38.18;;
69608;Laerm;57251;52.248;4.812;2022-08-03T00:18:49;34.04;32.14;39.19;;
69608;Laerm;57251;52.248;4.812;2022-08-03T00:19:00;33.38;32.04;36.18;;
69608;Laerm;57251;52.248;4.812;2022-08-03T00:19:11;33.41;31.71;41.81;;
69608;Laerm;57251;52.248;4.812;2022-08-03T00:19:21;33.95;31.66;37.50;;
69608;Laerm;57251;52.248;4.812;2022-08-03T00:19:31;32.64;31.44;34.23;;
69608;Laerm;57251;52.248;4.812;2022-08-03T00:19:41;32.73;31.41;33.91;;
69608;Laerm;57251;52.248;4.812;2022-08-03T00:19:52;32.37;31.03;33.92;;
69608;Laerm;57251;52.248;4.812;2022-08-03T00:20:02;32.43;31.15;34.47;;
69608;Laerm;57251;52.248;4.812;2022-08-03T00:20:12;32.37;31.30;33.62;;
69608;Laerm;57251;52.248;4.812;2022-08-03T00:20:22;32.47;31.25;33.68;;
69608;Laerm;57251;52.248;4.812;2022-08-03T00:20:33;32.37;31.15;33.57;;
69608;Laerm;57251;52.248;4.812;2022-08-03T00:20:43;32.29;31.42;36.87;;
69608;Laerm;57251;52.248;4.812;2022-08-03T00:20:54;32.50;31.10;44.28;;
69608;Laerm;57251;52.248;4.812;2022-08-03T00:21:04;32.29;31.19;35.61;;
69608;Laerm;57251;52.248;4.812;2022-08-03T00:21:14;32.43;31.20;35.02;;
69608;Laerm;57251;52.248;4.812;2022-08-03T00:21:24;32.31;31.05;33.72;;
69608;Laerm;57251;52.248;4.812;2022-08-03T00:21:34;32.52;31.20;37.02;;
69608;Laerm;57251;52.248;4.812;2022-08-03T00:21:45;32.38;31.26;33.76;;
69608;Laerm;57251;52.248;4.812;2022-08-03T00:21:55;32.26;30.90;33.48;;
69608;Laerm;57251;52.248;4.812;2022-08-03T00:22:05;32.37;31.30;33.45;;
69608;Laerm;57251;52.248;4.812;2022-08-03T00:22:16;32.41;31.43;33.74;;
69608;Laerm;57251;52.248;4.812;2022-08-03T00:22:26;33.73;31.21;46.62;;
69608;Laerm;57251;52.248;4.812;2022-08-03T00:22:36;33.15;31.64;42.35;;
69608;Laerm;57251;52.248;4.812;2022-08-03T00:22:46;33.05;31.57;42.13;;
69608;Laerm;57251;52.248;4.812;2022-08-03T00:22:57;32.51;31.21;34.75;;
69608;Laerm;57251;52.248;4.812;2022-08-03T00:23:07;32.77;31.29;36.92;;
69608;Laerm;57251;52.248;4.812;2022-08-03T00:23:17;32.48;31.29;33.59;;
69608;Laerm;57251;52.248;4.812;2022-08-03T00:23:27;32.78;31.35;37.22;;
69608;Laerm;57251;52.248;4.812;2022-08-03T00:23:38;33.98;31.56;40.49;;
69608;Laerm;57251;52.248;4.812;2022-08-03T00:23:48;32.95;31.76;34.32;;
69608;Laerm;57251;52.248;4.812;2022-08-03T00:23:58;33.44;31.58;37.30;;
69608;Laerm;57251;52.248;4.812;2022-08-03T00:24:08;32.82;31.42;38.12;;
69608;Laerm;57251;52.248;4.812;2022-08-03T00:24:18;33.01;31.57;34.18;;
69608;Laerm;57251;52.248;4.812;2022-08-03T00:24:29;33.96;32.57;37.03;;
69608;Laerm;57251;52.248;4.812;2022-08-03T00:24:40;33.19;31.56;35.12;;
69608;Laerm;57251;52.248;4.812;2022-08-03T00:24:50;32.45;30.80;33.66;;
69608;Laerm;57251;52.248;4.812;2022-08-03T00:25:00;32.32;31.18;33.58;;
69608;Laerm;57251;52.248;4.812;2022-08-03T00:25:10;32.27;31.13;33.74;;
69608;Laerm;57251;52.248;4.812;2022-08-03T00:25:21;32.32;31.21;33.64;;
69608;Laerm;57251;52.248;4.812;2022-08-03T00:25:32;32.31;30.99;33.55;;
69608;Laerm;57251;52.248;4.812;2022-08-03T00:25:42;32.36;31.28;33.68;;
69608;Laerm;57251;52.248;4.812;2022-08-03T00:25:52;32.52;31.30;37.43;;
69608;Laerm;57251;52.248;4.812;2022-08-03T00:26:02;32.55;31.41;36.79;;
69608;Laerm;57251;52.248;4.812;2022-08-03T00:26:12;32.54;31.24;33.73;;
69608;Laerm;57251;52.248;4.812;2022-08-03T00:26:23;32.68;31.26;34.11;;
69608;Laerm;57251;52.248;4.812;2022-08-03T00:26:33;32.57;31.19;34.28;;
69608;Laerm;57251;52.248;4.812;2022-08-03T00:26:43;32.37;31.36;33.44;;
69608;Laerm;57251;52.248;4.812;2022-08-03T00:26:53;32.26;31.01;33.70;;
69608;Laerm;57251;52.248;4.812;2022-08-03T00:27:03;32.43;31.11;33.54;;
69608;Laerm;57251;52.248;4.812;2022-08-03T00:27:13;32.46;31.44;33.58;;
69608;Laerm;57251;52.248;4.812;2022-08-03T00:27:24;32.48;31.07;33.80;;
69608;Laerm;57251;52.248;4.812;2022-08-03T00:27:34;32.64;31.41;33.79;;
69608;Laerm;57251;52.248;4.812;2022-08-03T00:27:44;33.08;31.77;34.56;;
69608;Laerm;57251;52.248;4.812;2022-08-03T00:27:54;33.29;32.09;34.48;;
69608;Laerm;57251;52.248;4.812;2022-08-03T00:28:04;34.06;32.22;36.19;;
69608;Laerm;57251;52.248;4.812;2022-08-03T00:28:15;33.17;31.68;34.69;;
69608;Laerm;57251;52.248;4.812;2022-08-03T00:28:25;33.23;32.00;36.01;;
69608;Laerm;57251;52.248;4.812;2022-08-03T00:28:35;33.54;31.91;35.23;;
69608;Laerm;57251;52.248;4.812;2022-08-03T00:28:46;32.48;31.29;34.00;;
69608;Laerm;57251;52.248;4.812;2022-08-03T00:28:56;32.15;31.02;33.29;;
69608;Laerm;57251;52.248;4.812;2022-08-03T00:29:06;32.29;30.85;33.42;;
69608;Laerm;57251;52.248;4.812;2022-08-03T00:29:16;32.21;31.03;33.30;;
69608;Laerm;57251;52.248;4.812;2022-08-03T00:29:26;32.46;31.40;33.89;;
69608;Laerm;57251;52.248;4.812;2022-08-03T00:29:37;32.29;30.79;33.45;;
69608;Laerm;57251;52.248;4.812;2022-08-03T00:29:47;32.25;31.09;33.41;;
69608;Laerm;57251;52.248;4.812;2022-08-03T00:29:57;32.58;31.27;33.96;;
69608;Laerm;57251;52.248;4.812;2022-08-03T00:30:07;32.39;31.25;33.70;;
69608;Laerm;57251;52.248;4.812;2022-08-03T00:30:17;32.32;31.15;33.51;;
69608;Laerm;57251;52.248;4.812;2022-08-03T00:30:28;32.59;31.36;33.94;;
69608;Laerm;57251;52.248;4.812;2022-08-03T00:30:38;32.82;31.57;34.10;;
69608;Laerm;57251;52.248;4.812;2022-08-03T00:30:48;33.91;31.99;36.72;;
69608;Laerm;57251;52.248;4.812;2022-08-03T00:30:58;35.00;32.95;38.02;;
69608;Laerm;57251;52.248;4.812;2022-08-03T00:31:09;33.25;31.42;36.79;;
69608;Laerm;57251;52.248;4.812;2022-08-03T00:31:19;32.27;31.08;34.87;;
69608;Laerm;57251;52.248;4.812;2022-08-03T00:31:29;32.70;31.25;35.48;;
69608;Laerm;57251;52.248;4.812;2022-08-03T00:31:39;32.79;31.66;35.74;;
69608;Laerm;57251;52.248;4.812;2022-08-03T00:31:49;33.27;31.68;35.00;;
69608;Laerm;57251;52.248;4.812;2022-08-03T00:32:00;34.98;31.93;38.21;;
69608;Laerm;57251;52.248;4.812;2022-08-03T00:32:10;33.55;31.96;35.21;;
69608;Laerm;57251;52.248;4.812;2022-08-03T00:32:20;39.65;32.94;47.40;;
69608;Laerm;57251;52.248;4.812;2022-08-03T00:32:30;39.05;32.29;45.53;;
69608;Laerm;57251;52.248;4.812;2022-08-03T00:32:40;35.51;32.52;39.39;;
69608;Laerm;57251;52.248;4.812;2022-08-03T00:32:50;40.41;33.93;46.81;;
69608;Laerm;57251;52.248;4.812;2022-08-03T00:33:01;50.37;37.70;58.90;;
69608;Laerm;57251;52.248;4.812;2022-08-03T00:33:12;54.14;45.10;60.69;;
69608;Laerm;57251;52.248;4.812;2022-08-03T00:33:22;62.27;39.12;70.17;;
69608;Laerm;57251;52.248;4.812;2022-08-03T00:33:32;42.57;32.57;51.32;;
69608;Laerm;57251;52.248;4.812;2022-08-03T00:33:42;34.47;32.52;37.45;;
69608;Laerm;57251;52.248;4.812;2022-08-03T00:33:52;33.70;31.41;35.91;;
69608;Laerm;57251;52.248;4.812;2022-08-03T00:34:03;34.56;32.02;37.89;;
69608;Laerm;57251;52.248;4.812;2022-08-03T00:34:13;33.35;31.39;35.94;;
69608;Laerm;57251;52.248;4.812;2022-08-03T00:34:23;32.36;31.08;34.03;;
69608;Laerm;57251;52.248;4.812;2022-08-03T00:34:33;32.25;31.17;34.69;;
69608;Laerm;57251;52.248;4.812;2022-08-03T00:34:43;32.15;31.18;33.17;;
69608;Laerm;57251;52.248;4.812;2022-08-03T00:34:53;32.25;31.00;36.79;;
69608;Laerm;57251;52.248;4.812;2022-08-03T00:35:04;32.28;31.09;33.93;;
69608;Laerm;57251;52.248;4.812;2022-08-03T00:35:14;32.18;30.97;33.67;;
69608;Laerm;57251;52.248;4.812;2022-08-03T00:35:25;32.24;30.86;33.40;;
69608;Laerm;57251;52.248;4.812;2022-08-03T00:35:35;32.30;31.01;33.53;;
69608;Laerm;57251;52.248;4.812;2022-08-03T00:35:45;32.28;30.92;33.39;;
69608;Laerm;57251;52.248;4.812;2022-08-03T00:35:55;32.36;30.87;33.61;;
69608;Laerm;57251;52.248;4.812;2022-08-03T00:36:05;32.29;31.07;33.63;;
69608;Laerm;57251;52.248;4.812;2022-08-03T00:36:16;32.54;31.32;34.00;;
69608;Laerm;57251;52.248;4.812;2022-08-03T00:36:26;32.26;30.89;33.22;;
69608;Laerm;57251;52.248;4.812;2022-08-03T00:36:36;32.30;31.21;33.43;;
69608;Laerm;57251;52.248;4.812;2022-08-03T00:36:47;32.43;30.99;34.37;;
69608;Laerm;57251;52.248;4.812;2022-08-03T00:36:57;32.48;31.34;34.04;;
69608;Laerm;57251;52.248;4.812;2022-08-03T00:37:07;32.69;31.33;34.33;;
69608;Laerm;57251;52.248;4.812;2022-08-03T00:37:17;32.32;31.12;33.65;;
69608;Laerm;57251;52.248;4.812;2022-08-03T00:37:27;32.65;31.20;38.42;;
69608;Laerm;57251;52.248;4.812;2022-08-03T00:37:38;33.45;31.46;37.09;;
69608;Laerm;57251;52.248;4.812;2022-08-03T00:37:48;32.40;30.99;33.70;;
69608;Laerm;57251;52.248;4.812;2022-08-03T00:37:58;32.46;31.23;36.71;;
69608;Laerm;57251;52.248;4.812;2022-08-03T00:38:08;32.47;31.23;33.98;;
69608;Laerm;57251;52.248;4.812;2022-08-03T00:38:19;32.73;31.42;33.98;;
69608;Laerm;57251;52.248;4.812;2022-08-03T00:38:29;34.22;31.78;40.90;;
69608;Laerm;57251;52.248;4.812;2022-08-03T00:38:39;33.13;31.35;36.75;;
69608;Laerm;57251;52.248;4.812;2022-08-03T00:38:49;32.49;31.10;35.10;;
69608;Laerm;57251;52.248;4.812;2022-08-03T00:38:59;32.42;30.76;33.71;;
69608;Laerm;57251;52.248;4.812;2022-08-03T00:39:10;32.21;31.02;33.13;;
69608;Laerm;57251;52.248;4.812;2022-08-03T00:39:20;32.20;30.91;34.25;;
69608;Laerm;57251;52.248;4.812;2022-08-03T00:39:30;32.64;30.97;40.31;;
69608;Laerm;57251;52.248;4.812;2022-08-03T00:39:40;32.32;31.30;35.60;;
69608;Laerm;57251;52.248;4.812;2022-08-03T00:39:52;32.23;31.05;36.83;;
69608;Laerm;57251;52.248;4.812;2022-08-03T00:40:02;32.67;30.89;41.12;;
69608;Laerm;57251;52.248;4.812;2022-08-03T00:40:13;32.30;30.72;34.58;;
69608;Laerm;57251;52.248;4.812;2022-08-03T00:40:24;32.75;31.40;34.53;;
69608;Laerm;57251;52.248;4.812;2022-08-03T00:40:35;32.83;31.10;35.47;;
69608;Laerm;57251;52.248;4.812;2022-08-03T00:40:45;32.76;31.22;35.80;;
69608;Laerm;57251;52.248;4.812;2022-08-03T00:40:55;32.40;31.36;33.55;;
69608;Laerm;57251;52.248;4.812;2022-08-03T00:41:05;32.76;31.62;33.90;;
69608;Laerm;57251;52.248;4.812;2022-08-03T00:41:16;32.53;31.11;33.51;;
69608;Laerm;57251;52.248;4.812;2022-08-03T00:41:26;32.40;30.87;36.06;;
69608;Laerm;57251;52.248;4.812;2022-08-03T00:41:36;32.62;31.37;34.28;;
69608;Laerm;57251;52.248;4.812;2022-08-03T00:41:46;36.33;32.55;40.50;;
69608;Laerm;57251;52.248;4.812;2022-08-03T00:42:00;36.23;33.36;39.41;;
69608;Laerm;57251;52.248;4.812;2022-08-03T00:42:10;32.98;31.40;36.92;;
69608;Laerm;57251;52.248;4.812;2022-08-03T00:42:21;33.11;31.57;34.67;;
69608;Laerm;57251;52.248;4.812;2022-08-03T00:42:31;41.30;33.13;47.13;;
69608;Laerm;57251;52.248;4.812;2022-08-03T00:42:47;40.37;31.32;48.12;;
69608;Laerm;57251;52.248;4.812;2022-08-03T00:43:00;33.10;31.34;35.09;;
69608;Laerm;57251;52.248;4.812;2022-08-03T00:43:10;33.19;31.87;35.20;;
69608;Laerm;57251;52.248;4.812;2022-08-03T00:43:23;32.67;31.38;34.15;;
69608;Laerm;57251;52.248;4.812;2022-08-03T00:43:33;32.60;31.31;34.29;;
69608;Laerm;57251;52.248;4.812;2022-08-03T00:43:44;32.21;31.16;35.04;;
69608;Laerm;57251;52.248;4.812;2022-08-03T00:43:54;32.05;30.57;33.75;;
69608;Laerm;57251;52.248;4.812;2022-08-03T00:44:04;32.05;30.95;33.33;;
69608;Laerm;57251;52.248;4.812;2022-08-03T00:44:15;32.28;30.94;33.90;;
69608;Laerm;57251;52.248;4.812;2022-08-03T00:44:25;32.22;30.87;33.06;;
69608;Laerm;57251;52.248;4.812;2022-08-03T00:44:39;32.05;30.87;33.61;;
69608;Laerm;57251;52.248;4.812;2022-08-03T00:44:49;32.04;31.03;33.27;;
69608;Laerm;57251;52.248;4.812;2022-08-03T00:45:00;31.99;30.86;33.04;;
69608;Laerm;57251;52.248;4.812;2022-08-03T00:45:10;32.08;31.06;33.00;;
69608;Laerm;57251;52.248;4.812;2022-08-03T00:45:21;32.17;30.99;33.21;;
69608;Laerm;57251;52.248;4.812;2022-08-03T00:45:35;32.18;30.96;33.41;;
69608;Laerm;57251;52.248;4.812;2022-08-03T00:45:46;32.17;30.97;33.59;;
69608;Laerm;57251;52.248;4.812;2022-08-03T00:45:57;32.11;30.78;34.91;;
69608;Laerm;57251;52.248;4.812;2022-08-03T00:46:07;32.03;31.08;32.83;;
69608;Laerm;57251;52.248;4.812;2022-08-03T00:46:17;32.18;30.64;33.70;;
69608;Laerm;57251;52.248;4.812;2022-08-03T00:46:27;32.28;30.90;33.33;;
69608;Laerm;57251;52.248;4.812;2022-08-03T00:46:37;32.20;30.89;33.42;;
69608;Laerm;57251;52.248;4.812;2022-08-03T00:46:48;32.28;31.20;33.80;;
69608;Laerm;57251;52.248;4.812;2022-08-03T00:46:58;32.25;31.16;35.44;;
69608;Laerm;57251;52.248;4.812;2022-08-03T00:47:08;32.17;30.96;34.63;;
69608;Laerm;57251;52.248;4.812;2022-08-03T00:47:19;32.29;31.17;34.13;;
69608;Laerm;57251;52.248;4.812;2022-08-03T00:47:29;32.11;30.82;33.12;;
69608;Laerm;57251;52.248;4.812;2022-08-03T00:47:39;32.25;31.20;33.59;;
69608;Laerm;57251;52.248;4.812;2022-08-03T00:47:49;32.15;30.97;33.68;;
69608;Laerm;57251;52.248;4.812;2022-08-03T00:48:00;32.10;30.65;34.09;;
69608;Laerm;57251;52.248;4.812;2022-08-03T00:48:11;32.29;30.90;35.46;;
69608;Laerm;57251;52.248;4.812;2022-08-03T00:48:21;32.17;31.15;33.27;;
69608;Laerm;57251;52.248;4.812;2022-08-03T00:48:31;32.24;31.04;33.76;;
69608;Laerm;57251;52.248;4.812;2022-08-03T00:48:42;32.10;30.87;33.33;;
69608;Laerm;57251;52.248;4.812;2022-08-03T00:48:52;32.40;30.88;36.05;;
69608;Laerm;57251;52.248;4.812;2022-08-03T00:49:02;32.16;31.09;36.43;;
69608;Laerm;57251;52.248;4.812;2022-08-03T00:49:13;32.14;31.10;33.71;;
69608;Laerm;57251;52.248;4.812;2022-08-03T00:49:23;32.28;31.05;37.09;;
69608;Laerm;57251;52.248;4.812;2022-08-03T00:49:33;32.18;30.85;35.82;;
69608;Laerm;57251;52.248;4.812;2022-08-03T00:49:43;32.02;30.83;33.33;;
69608;Laerm;57251;52.248;4.812;2022-08-03T00:49:54;32.15;30.70;33.48;;
69608;Laerm;57251;52.248;4.812;2022-08-03T00:50:04;32.22;31.12;33.93;;
69608;Laerm;57251;52.248;4.812;2022-08-03T00:50:16;32.07;31.03;33.18;;
69608;Laerm;57251;52.248;4.812;2022-08-03T00:50:27;32.11;30.86;34.33;;
69608;Laerm;57251;52.248;4.812;2022-08-03T00:50:38;32.45;30.91;43.67;;
69608;Laerm;57251;52.248;4.812;2022-08-03T00:50:50;32.13;30.61;33.74;;
69608;Laerm;57251;52.248;4.812;2022-08-03T00:51:00;32.44;30.91;34.26;;
69608;Laerm;57251;52.248;4.812;2022-08-03T00:51:10;32.92;31.24;34.87;;
69608;Laerm;57251;52.248;4.812;2022-08-03T00:51:21;35.35;31.82;39.91;;
69608;Laerm;57251;52.248;4.812;2022-08-03T00:51:31;32.42;31.38;35.03;;
69608;Laerm;57251;52.248;4.812;2022-08-03T00:51:42;32.24;30.82;33.77;;
69608;Laerm;57251;52.248;4.812;2022-08-03T00:51:53;32.28;31.21;33.15;;
69608;Laerm;57251;52.248;4.812;2022-08-03T00:52:03;32.36;30.66;35.05;;
69608;Laerm;57251;52.248;4.812;2022-08-03T00:52:13;32.13;31.13;33.28;;
69608;Laerm;57251;52.248;4.812;2022-08-03T00:52:25;33.64;31.45;37.40;;
69608;Laerm;57251;52.248;4.812;2022-08-03T00:52:35;34.72;33.19;36.92;;
69608;Laerm;57251;52.248;4.812;2022-08-03T00:52:45;33.71;31.35;35.84;;
69608;Laerm;57251;52.248;4.812;2022-08-03T00:52:57;32.36;31.30;34.18;;
69608;Laerm;57251;52.248;4.812;2022-08-03T00:53:08;32.20;31.03;33.24;;
69608;Laerm;57251;52.248;4.812;2022-08-03T00:53:19;32.18;31.02;34.08;;
69608;Laerm;57251;52.248;4.812;2022-08-03T00:53:29;32.37;31.05;41.78;;
69608;Laerm;57251;52.248;4.812;2022-08-03T00:53:40;32.02;30.49;33.21;;
69608;Laerm;57251;52.248;4.812;2022-08-03T00:53:50;32.02;30.83;36.49;;
69608;Laerm;57251;52.248;4.812;2022-08-03T00:54:00;32.02;30.82;34.39;;
69608;Laerm;57251;52.248;4.812;2022-08-03T00:54:10;32.05;30.93;33.46;;
69608;Laerm;57251;52.248;4.812;2022-08-03T00:54:21;32.06;30.91;33.29;;
69608;Laerm;57251;52.248;4.812;2022-08-03T00:54:32;31.97;30.46;33.18;;
69608;Laerm;57251;52.248;4.812;2022-08-03T00:54:42;32.18;31.15;33.25;;
69608;Laerm;57251;52.248;4.812;2022-08-03T00:54:53;32.36;31.05;35.40;;
69608;Laerm;57251;52.248;4.812;2022-08-03T00:55:03;32.53;31.23;34.44;;
69608;Laerm;57251;52.248;4.812;2022-08-03T00:55:14;32.67;31.27;35.09;;
69608;Laerm;57251;52.248;4.812;2022-08-03T00:55:24;32.59;30.86;34.88;;
69608;Laerm;57251;52.248;4.812;2022-08-03T00:55:35;32.49;31.01;33.93;;
69608;Laerm;57251;52.248;4.812;2022-08-03T00:55:45;32.49;31.21;37.17;;
69608;Laerm;57251;52.248;4.812;2022-08-03T00:55:55;32.68;31.05;37.01;;
69608;Laerm;57251;52.248;4.812;2022-08-03T00:56:05;36.29;31.10;49.39;;
69608;Laerm;57251;52.248;4.812;2022-08-03T00:56:16;32.26;30.96;33.37;;
69608;Laerm;57251;52.248;4.812;2022-08-03T00:56:26;32.47;31.25;34.04;;
69608;Laerm;57251;52.248;4.812;2022-08-03T00:56:36;32.35;31.10;33.67;;
69608;Laerm;57251;52.248;4.812;2022-08-03T00:56:47;32.25;30.81;35.69;;
69608;Laerm;57251;52.248;4.812;2022-08-03T00:56:58;32.17;30.88;33.28;;
69608;Laerm;57251;52.248;4.812;2022-08-03T00:57:09;32.12;30.88;33.09;;
69608;Laerm;57251;52.248;4.812;2022-08-03T00:57:19;32.68;31.24;33.89;;
69608;Laerm;57251;52.248;4.812;2022-08-03T00:57:30;33.02;31.46;35.41;;
69608;Laerm;57251;52.248;4.812;2022-08-03T00:57:41;32.45;31.20;34.11;;
69608;Laerm;57251;52.248;4.812;2022-08-03T00:57:51;32.78;31.39;34.68;;
69608;Laerm;57251;52.248;4.812;2022-08-03T00:58:03;34.43;32.25;38.07;;
69608;Laerm;57251;52.248;4.812;2022-08-03T00:58:16;34.34;31.93;36.63;;